| time (UTC) | temp F | wind direction | speed MPH | gust MPH | rain 1hr in | rain 24hr in | rain mn in | humidity % | barometer mb |
| 20260505194042 | 52 | 0 | 0.0 | 0.0 | 0.00 | 0.00 | 0.00 | 40 | 1009.7 |
| 20260505193041 | 52 | 0 | 0.0 | 0.0 | 0.00 | 0.00 | 0.00 | 42 | 1009.6 |
| 20260505192041 | 53 | 0 | 0.0 | 0.0 | 0.00 | 0.00 | 0.00 | 43 | 1009.5 |
| 20260505191042 | 53 | 0 | 0.0 | 0.0 | 0.00 | 0.00 | 0.00 | 44 | 1009.5 |
| 20260505185041 | 54 | 0 | 0.0 | 0.0 | 0.00 | 0.00 | 0.00 | 45 | 1009.4 |
| 20260505184043 | 54 | 0 | 0.0 | 0.0 | 0.00 | 0.00 | 0.00 | 45 | 1009.3 |
| 20260505182041 | 55 | 0 | 0.0 | 0.0 | 0.00 | 0.00 | 0.00 | 45 | 1009.2 |
| 20260505181041 | 55 | 0 | 0.0 | 0.0 | 0.00 | 0.00 | 0.00 | 45 | 1009.2 |
| 20260505180042 | 55 | 0 | 0.0 | 0.0 | 0.00 | 0.00 | 0.00 | 44 | 1009.1 |
| 20260505175041 | 56 | 0 | 0.0 | 0.0 | 0.00 | 0.00 | 0.00 | 45 | 1008.9 |
| 20260505174041 | 56 | 0 | 0.0 | 0.0 | 0.00 | 0.00 | 0.00 | 45 | 1009.0 |
| 20260505172042 | 57 | 0 | 0.0 | 0.0 | 0.00 | 0.00 | 0.00 | 46 | 1009.1 |
| 20260505170041 | 58 | 0 | 0.0 | 0.0 | 0.00 | 0.00 | 0.00 | 47 | 1009.2 |
| 20260505165043 | 59 | 0 | 0.0 | 0.0 | 0.00 | 0.00 | 0.00 | 46 | 1009.2 |
| 20260505163041 | 60 | 0 | 0.0 | 0.0 | 0.00 | 0.00 | 0.00 | 45 | 1009.2 |
| 20260505162042 | 60 | 0 | 0.0 | 0.0 | 0.00 | 0.00 | 0.00 | 45 | 1009.3 |
| 20260505153042 | 60 | 0 | 0.0 | 0.0 | 0.00 | 0.00 | 0.00 | 45 | 1009.3 |
| 20260505152041 | 60 | 0 | 0.0 | 0.0 | 0.00 | 0.00 | 0.00 | 45 | 1009.3 |
| 20260505151042 | 60 | 0 | 0.0 | 0.0 | 0.00 | 0.00 | 0.00 | 44 | 1009.5 |
| 20260505124042 | 56 | 0 | 0.0 | 0.0 | 0.00 | 0.01 | 0.00 | 23 | 1010.5 |
| 20260505123041 | 55 | 0 | 0.0 | 0.0 | 0.00 | 0.01 | 0.00 | 23 | 1010.5 |
| 20260505122041 | 54 | 0 | 0.0 | 0.0 | 0.00 | 0.01 | 0.00 | 13 | 1010.7 |
| 20260505120041 | 53 | 0 | 0.0 | 0.0 | 0.00 | 0.01 | 0.00 | 11 | 1010.6 |
| 20260505114042 | 54 | 0 | 0.0 | 0.0 | 0.00 | 0.01 | 0.00 | 12 | 1010.8 |
| 20260505113042 | 54 | 0 | 0.0 | 0.0 | 0.00 | 0.01 | 0.00 | 13 | 1010.9 |
| 20260505112041 | 54 | 0 | 0.0 | 0.0 | 0.00 | 0.01 | 0.00 | 12 | 1010.9 |
| 20260505102042 | 52 | 0 | 0.0 | 0.0 | 0.00 | 0.01 | 0.00 | 1 | 1011.2 |
| 20260505101042 | 51 | 0 | 0.0 | 0.0 | 0.00 | 0.01 | 0.00 | 1 | 1011.3 |
| 20260505100041 | 51 | 0 | 0.0 | 0.0 | 0.00 | 0.01 | 0.00 | 1 | 1011.3 |
| 20260505095041 | 50 | 0 | 0.0 | 0.0 | 0.00 | 0.01 | 0.00 | 1 | 1011.3 |
| 20260505093042 | 50 | 0 | 0.0 | 0.0 | 0.00 | 0.01 | 0.00 | 1 | 1011.4 |
| 20260505092041 | 50 | 0 | 0.0 | 0.0 | 0.00 | 0.01 | 0.00 | 1 | 1011.4 |
| 20260505091041 | 50 | 0 | 0.0 | 0.0 | 0.00 | 0.01 | 0.00 | 1 | 1011.4 |
| 20260505090042 | 50 | 0 | 0.0 | 0.0 | 0.00 | 0.01 | 0.00 | 1 | 1011.4 |
| 20260505085042 | 49 | 0 | 0.0 | 0.0 | 0.00 | 0.01 | 0.00 | 1 | 1011.3 |
| 20260505084041 | 49 | 0 | 0.0 | 0.0 | 0.00 | 0.01 | 0.00 | 1 | 1011.3 |
| 20260505083041 | 49 | 0 | 0.0 | 0.0 | 0.00 | 0.01 | 0.00 | 1 | 1011.2 |
| 20260505082042 | 49 | 0 | 0.0 | 0.0 | 0.00 | 0.01 | 0.00 | 1 | 1011.3 |
| 20260505081042 | 48 | 0 | 0.0 | 0.0 | 0.00 | 0.01 | 0.00 | 1 | 1011.3 |
| 20260505075041 | 48 | 0 | 0.0 | 0.0 | 0.00 | 0.01 | 0.00 | 1 | 1011.4 |
| 20260505074041 | 49 | 0 | 0.0 | 0.0 | 0.00 | 0.01 | 0.00 | 1 | 1011.4 |
| 20260505073042 | 49 | 0 | 0.0 | 0.0 | 0.00 | 0.01 | 0.00 | 1 | 1011.4 |
| 20260505072041 | 49 | 0 | 0.0 | 0.0 | 0.00 | 0.01 | 0.00 | 1 | 1011.4 |
| 20260505071042 | 49 | 0 | 0.0 | 0.0 | 0.00 | 0.01 | 0.00 | 1 | 1011.5 |
| 20260505070042 | 49 | 0 | 0.0 | 0.0 | 0.00 | 0.01 | 0.00 | 1 | 1011.5 |
| 20260505065041 | 49 | 0 | 0.0 | 0.0 | 0.00 | 0.01 | 0.00 | 1 | 1011.7 |
| 20260505064042 | 49 | 0 | 0.0 | 0.0 | 0.00 | 0.01 | 0.00 | 1 | 1011.8 |
| 20260505063042 | 48 | 0 | 0.0 | 0.0 | 0.00 | 0.01 | 0.00 | 1 | 1011.9 |
| 20260505062042 | 48 | 0 | 0.0 | 0.0 | 0.00 | 0.01 | 0.00 | 1 | 1011.8 |
| 20260505061041 | 48 | 0 | 0.0 | 0.0 | 0.00 | 0.01 | 0.00 | 1 | 1011.9 |